Terminal Aerodrome Forecast
Issued by NWS

Home | Current Version | Previous Version | Text Only | Print | Product List | Glossary Off
Versions: 1 2 3 4 5 6 7 8 9 10 11 12 13 14 15 16

480
FTUS43 KUNR 191725
TAFGCC
TAF
KGCC 191725Z 1918/2018 36010KT 6SM FU SCT120
      TEMPO 1918/1921 5SM FU
     FM200200 03010KT P6SM SCT150=

USA.gov is the U.S. government's official web portal to all federal, state and local government web resources and services.